Time;durP1;ratioP1;P1;durP2;ratioP2;P2;SDS_P1;SDS_P2;PMS_P1;PMS_P2;Temp;Humidity;BMP_temperature;BMP_pressure;BME280_temperature;BME280_humidity;BME280_pressure;Samples;Min_cycle;Max_cycle;Signal;HPM_P1;HPM_P2
2022/05/12 00:02:18;;;;;;;13.07;5.65;;;14.90;99.90;;;;;;6200279;23;20042;-66
2022/05/12 00:04:44;;;;;;;13.88;5.75;;;14.90;99.90;;;;;;6223061;23;20341;-67
2022/05/12 00:07:09;;;;;;;7.90;5.03;;;14.80;99.90;;;;;;6220899;23;20213;-66
2022/05/12 00:09:35;;;;;;;13.73;6.65;;;14.90;99.90;;;;;;6137968;23;20396;-67
2022/05/12 00:12:00;;;;;;;16.00;7.30;;;14.80;99.90;;;;;;6219862;23;20359;-67
2022/05/12 00:14:26;;;;;;;12.48;5.90;;;14.80;99.90;;;;;;6218868;23;20299;-67
2022/05/12 00:16:51;;;;;;;14.35;5.93;;;14.80;99.90;;;;;;6216649;23;20015;-67
2022/05/12 00:19:17;;;;;;;13.85;6.63;;;14.90;99.90;;;;;;6195008;23;20530;-67
2022/05/12 00:21:43;;;;;;;9.55;6.13;;;14.90;99.90;;;;;;6223604;23;20095;-67
2022/05/12 00:24:09;;;;;;;13.32;7.18;;;14.90;99.90;;;;;;6220571;23;20004;-67
2022/05/12 00:26:36;;;;;;;14.05;6.70;;;14.90;99.90;;;;;;6219148;23;20008;-67
2022/05/12 00:29:07;;;;;;;17.02;7.40;;;14.90;99.90;;;;;;6216805;23;20478;-67
2022/05/12 00:31:36;;;;;;;10.23;6.65;;;14.90;99.90;;;;;;6219224;23;20557;-67
2022/05/12 00:34:05;;;;;;;10.52;6.07;;;14.80;99.90;;;;;;6219107;23;20015;-68
2022/05/12 00:36:31;;;;;;;11.90;7.05;;;14.70;99.90;;;;;;6223104;23;20010;-67
2022/05/12 00:38:57;;;;;;;18.83;7.40;;;14.70;99.90;;;;;;6219583;23;20009;-67
2022/05/12 00:41:22;;;;;;;11.15;6.90;;;14.70;99.90;;;;;;6214916;23;20735;-67
2022/05/12 00:43:50;;;;;;;18.52;7.35;;;14.60;99.90;;;;;;6214339;23;20000;-68
2022/05/12 00:46:19;;;;;;;16.77;7.47;;;14.60;99.90;;;;;;6221538;23;20079;-70
2022/05/12 00:48:45;;;;;;;18.15;7.57;;;14.50;99.90;;;;;;6221411;23;20142;-69
2022/05/12 00:51:12;;;;;;;20.33;8.55;;;14.40;99.90;;;;;;6218924;23;20391;-69
2022/05/12 00:53:38;;;;;;;13.70;7.97;;;14.40;99.90;;;;;;6213773;23;20004;-68
2022/05/12 00:56:06;;;;;;;16.27;7.70;;;14.40;99.90;;;;;;6190912;23;20015;-68
2022/05/12 00:58:32;;;;;;;15.10;8.00;;;14.40;99.90;;;;;;6192742;23;20004;-68
2022/05/12 01:00:58;;;;;;;15.57;7.63;;;14.40;99.90;;;;;;6196056;23;20321;-67
2022/05/12 01:03:24;;;;;;;17.88;8.32;;;14.30;99.90;;;;;;6216884;23;20039;-65
2022/05/12 01:05:50;;;;;;;13.98;7.78;;;14.20;99.90;;;;;;6188871;23;20012;-64
2022/05/12 01:08:16;;;;;;;15.75;8.88;;;14.10;99.90;;;;;;6144795;23;20563;-65
2022/05/12 01:10:42;;;;;;;19.08;8.40;;;13.90;99.90;;;;;;6190817;23;20298;-65
2022/05/12 01:13:07;;;;;;;14.10;8.25;;;13.80;99.90;;;;;;6191889;23;20000;-65
2022/05/12 01:15:33;;;;;;;16.58;9.23;;;13.70;99.90;;;;;;6224746;23;20032;-65
2022/05/12 01:18:07;;;;;;;18.38;9.63;;;13.60;99.90;;;;;;6220669;23;20438;-65
2022/05/12 01:20:33;;;;;;;19.23;10.82;;;13.50;99.90;;;;;;6220219;23;20004;-65
2022/05/12 01:23:16;;;;;;;17.88;9.77;;;13.40;99.90;;;;;;6220957;23;20087;-65
2022/05/12 01:25:41;;;;;;;15.02;8.77;;;13.30;99.90;;;;;;6194254;23;20016;-65
2022/05/12 01:28:07;;;;;;;22.00;10.05;;;13.30;99.90;;;;;;6221200;23;20328;-65
2022/05/12 01:30:33;;;;;;;21.48;10.57;;;13.20;99.90;;;;;;6218826;23;20372;-65
2022/05/12 01:32:59;;;;;;;17.33;10.05;;;13.10;99.90;;;;;;6214249;23;20368;-65
2022/05/12 01:35:24;;;;;;;17.35;10.32;;;13.10;99.90;;;;;;6215636;23;20309;-65
2022/05/12 01:37:50;;;;;;;20.65;10.60;;;13.00;99.90;;;;;;6218932;23;20027;-65
2022/05/12 01:40:19;;;;;;;19.77;10.40;;;13.00;99.90;;;;;;6220189;23;20087;-65
2022/05/12 01:42:45;;;;;;;17.58;11.13;;;12.80;99.90;;;;;;6220614;23;20046;-65
2022/05/12 01:45:10;;;;;;;20.48;11.82;;;12.70;99.90;;;;;;6211184;23;20008;-65
2022/05/12 01:47:36;;;;;;;15.80;11.30;;;12.70;99.90;;;;;;6214175;23;20054;-65
2022/05/12 01:50:02;;;;;;;22.40;12.68;;;12.50;99.90;;;;;;6213650;23;20070;-65
2022/05/12 01:52:28;;;;;;;23.40;13.50;;;12.40;99.90;;;;;;6219329;23;20008;-65
2022/05/12 01:54:54;;;;;;;23.02;12.07;;;12.30;99.90;;;;;;6220474;23;20096;-65
2022/05/12 01:57:22;;;;;;;20.55;14.68;;;12.20;99.90;;;;;;6217179;23;20004;-65
2022/05/12 01:59:48;;;;;;;23.25;13.52;;;12.00;99.90;;;;;;6217304;22;20008;-65
2022/05/12 02:02:14;;;;;;;22.65;14.23;;;12.00;99.90;;;;;;6213508;23;20457;-65
2022/05/12 02:04:40;;;;;;;21.15;14.15;;;11.90;99.90;;;;;;6220817;23;20035;-65
2022/05/12 02:07:06;;;;;;;22.98;14.40;;;11.90;99.90;;;;;;6171317;23;20584;-66
2022/05/12 02:09:32;;;;;;;19.95;14.30;;;11.80;99.90;;;;;;6199401;23;20008;-65
2022/05/12 02:11:58;;;;;;;30.23;15.18;;;12.20;99.90;;;;;;6218211;23;20185;-65
2022/05/12 02:14:23;;;;;;;22.45;14.15;;;11.70;99.90;;;;;;6217248;23;20039;-65
2022/05/12 02:16:49;;;;;;;19.85;13.82;;;11.90;99.90;;;;;;6220765;23;20004;-65
2022/05/12 02:19:14;;;;;;;16.13;9.77;;;12.00;99.90;;;;;;6218291;23;20606;-64
2022/05/12 02:21:40;;;;;;;15.48;8.60;;;12.10;99.90;;;;;;6221819;23;20031;-65
2022/05/12 02:24:06;;;;;;;9.80;6.20;;;12.00;99.90;;;;;;6213396;23;20083;-65
2022/05/12 02:26:31;;;;;;;13.68;6.43;;;12.10;99.90;;;;;;6218177;23;20680;-65
2022/05/12 02:28:57;;;;;;;12.38;6.18;;;12.00;99.90;;;;;;6218616;23;20087;-65
2022/05/12 02:31:22;;;;;;;16.90;6.05;;;11.80;99.90;;;;;;6221910;23;20028;-65
2022/05/12 02:33:48;;;;;;;9.40;4.57;;;11.90;99.90;;;;;;6217468;23;20448;-66
2022/05/12 02:36:13;;;;;;;9.48;5.35;;;11.90;99.90;;;;;;6214724;23;20004;-65
2022/05/12 02:38:39;;;;;;;11.60;5.13;;;11.80;99.90;;;;;;6216642;23;19996;-65
2022/05/12 02:41:05;;;;;;;15.20;5.55;;;11.90;99.90;;;;;;6217853;23;20008;-65
2022/05/12 02:43:31;;;;;;;12.93;5.45;;;11.70;99.90;;;;;;6221125;23;20057;-65
2022/05/12 02:46:08;;;;;;;9.18;4.55;;;11.60;99.90;;;;;;6221968;23;20008;-65
2022/05/12 02:48:39;;;;;;;10.23;5.70;;;11.60;99.90;;;;;;6219502;23;20008;-65
2022/05/12 02:51:04;;;;;;;13.38;6.18;;;11.50;99.90;;;;;;6215480;23;20050;-65
2022/05/12 02:53:30;;;;;;;16.30;6.05;;;11.40;99.90;;;;;;6216660;23;20024;-65
2022/05/12 02:55:57;;;;;;;10.25;5.72;;;11.30;99.90;;;;;;6187611;23;20004;-65
2022/05/12 02:58:22;;;;;;;13.98;6.35;;;11.20;99.90;;;;;;6221986;23;20008;-65
2022/05/12 03:00:48;;;;;;;14.73;6.38;;;11.20;99.90;;;;;;6221624;22;20467;-65
2022/05/12 03:03:13;;;;;;;19.50;6.85;;;11.00;99.90;;;;;;6218545;23;20027;-65
2022/05/12 03:05:39;;;;;;;14.38;7.13;;;10.90;99.90;;;;;;6210906;23;20344;-65
2022/05/12 03:08:05;;;;;;;11.45;6.78;;;10.80;99.90;;;;;;6196418;23;20012;-65
2022/05/12 03:10:31;;;;;;;20.13;7.90;;;10.60;99.90;;;;;;6221103;23;20036;-65
2022/05/12 03:12:57;;;;;;;15.15;8.10;;;10.60;99.90;;;;;;6223089;23;20031;-65
2022/05/12 03:15:23;;;;;;;17.20;7.60;;;10.40;99.90;;;;;;6216688;23;20015;-65
2022/05/12 03:17:49;;;;;;;13.73;7.97;;;10.30;99.90;;;;;;6215274;23;20110;-65
2022/05/12 03:20:16;;;;;;;17.00;8.07;;;10.20;99.90;;;;;;6215295;23;20768;-64
2022/05/12 03:22:42;;;;;;;16.38;8.05;;;10.10;99.90;;;;;;6213468;23;20020;-65
2022/05/12 03:25:09;;;;;;;13.55;8.52;;;10.10;99.90;;;;;;6215095;23;20022;-65
2022/05/12 03:27:35;;;;;;;18.83;8.45;;;10.00;99.90;;;;;;6218128;23;20067;-66
2022/05/12 03:30:00;;;;;;;18.70;8.20;;;9.90;99.90;;;;;;6221488;23;20035;-65
2022/05/12 03:32:26;;;;;;;17.77;10.25;;;9.90;99.90;;;;;;6216916;23;20000;-59
2022/05/12 03:34:51;;;;;;;18.60;11.18;;;10.60;99.90;;;;;;6217092;23;20012;-58
2022/05/12 03:37:17;;;;;;;18.52;9.32;;;10.60;99.90;;;;;;6214610;23;20685;-59
2022/05/12 03:39:43;;;;;;;16.33;9.40;;;10.30;99.90;;;;;;6217544;23;20008;-58
2022/05/12 03:42:12;;;;;;;19.02;9.68;;;10.10;99.90;;;;;;6225884;23;20012;-58
2022/05/12 03:44:46;;;;;;;15.13;9.52;;;10.00;99.90;;;;;;6222827;23;20031;-58
2022/05/12 03:47:22;;;;;;;18.90;9.77;;;9.90;99.90;;;;;;6219333;23;20452;-58
2022/05/12 03:49:55;;;;;;;20.90;9.55;;;9.80;99.90;;;;;;6222272;23;20015;-58
2022/05/12 03:52:20;;;;;;;21.80;10.05;;;9.80;99.90;;;;;;6229893;23;20011;-64
2022/05/12 03:54:46;;;;;;;18.58;10.07;;;9.70;99.90;;;;;;6226593;23;20008;-64
2022/05/12 03:57:13;;;;;;;23.00;10.73;;;9.70;99.90;;;;;;6224488;23;20126;-64
2022/05/12 03:59:39;;;;;;;22.88;10.80;;;9.70;99.90;;;;;;6221023;22;20004;-64
2022/05/12 04:02:05;;;;;;;20.75;10.13;;;9.60;99.90;;;;;;6225708;23;20035;-64
2022/05/12 04:04:32;;;;;;;24.67;10.85;;;9.70;99.90;;;;;;6229575;23;20041;-60
2022/05/12 04:06:57;;;;;;;15.27;9.68;;;9.70;99.90;;;;;;6225924;23;20071;-62
2022/05/12 04:09:23;;;;;;;19.88;10.60;;;9.80;99.90;;;;;;6144790;23;20015;-63
2022/05/12 04:11:48;;;;;;;16.90;10.00;;;9.80;99.90;;;;;;6223419;23;20106;-64
2022/05/12 04:14:14;;;;;;;16.08;10.65;;;9.90;99.90;;;;;;6222577;23;20004;-63
2022/05/12 04:16:39;;;;;;;21.65;9.98;;;9.90;99.90;;;;;;6219378;23;20000;-63
2022/05/12 04:19:06;;;;;;;20.30;9.40;;;9.90;99.90;;;;;;6219787;23;20492;-63
2022/05/12 04:21:34;;;;;;;17.35;9.25;;;10.00;99.90;;;;;;6220910;23;20032;-63
2022/05/12 04:24:04;;;;;;;20.58;10.07;;;9.90;99.90;;;;;;6223190;23;20028;-63
2022/05/12 04:26:29;;;;;;;17.05;10.32;;;10.20;99.90;;;;;;6226708;23;20000;-63
2022/05/12 04:28:55;;;;;;;19.90;10.13;;;10.30;99.90;;;;;;6227890;23;20338;-63
2022/05/12 04:31:20;;;;;;;18.42;9.93;;;10.50;99.90;;;;;;6219433;23;20000;-63
2022/05/12 04:36:30;;;;;;;18.73;9.48;;;9.90;99.90;;;;;;6219332;23;20399;-64
2022/05/12 04:38:57;;;;;;;15.95;10.30;;;10.90;99.90;;;;;;6224039;23;20004;-63
2022/05/12 04:41:23;;;;;;;14.02;9.75;;;11.00;99.90;;;;;;6216606;23;20540;-63
2022/05/12 04:43:49;;;;;;;16.55;9.48;;;11.20;99.90;;;;;;6226192;23;20049;-63
2022/05/12 04:46:14;;;;;;;20.58;9.55;;;11.30;99.90;;;;;;6221706;23;20004;-63
2022/05/12 04:48:40;;;;;;;18.83;9.60;;;11.40;99.90;;;;;;6220694;23;20055;-63
2022/05/12 04:51:05;;;;;;;17.88;7.93;;;11.50;99.90;;;;;;6217815;23;20000;-62
2022/05/12 04:53:31;;;;;;;18.60;9.57;;;11.70;99.90;;;;;;6224391;23;20008;-63
2022/05/12 04:55:56;;;;;;;19.23;8.45;;;11.80;99.90;;;;;;6225993;23;20015;-63
2022/05/12 04:58:22;;;;;;;14.68;8.85;;;11.90;99.90;;;;;;6224622;23;20396;-63
2022/05/12 05:00:48;;;;;;;17.52;9.13;;;12.00;99.90;;;;;;6217409;22;20371;-64
2022/05/12 05:03:13;;;;;;;17.17;7.40;;;12.20;99.90;;;;;;6220074;23;20024;-63
2022/05/12 05:05:39;;;;;;;12.23;6.72;;;12.40;99.90;;;;;;6227215;23;20375;-63
2022/05/12 05:08:04;;;;;;;15.60;6.60;;;12.80;99.90;;;;;;6226154;23;20008;-63
2022/05/12 05:10:32;;;;;;;11.63;5.70;;;14.10;99.90;;;;;;6226730;23;20498;-63
2022/05/12 05:12:58;;;;;;;11.15;4.80;;;14.90;99.90;;;;;;6224159;23;20054;-63
2022/05/12 05:15:24;;;;;;;8.38;4.40;;;15.80;98.70;;;;;;6220624;23;20004;-63
2022/05/12 05:17:51;;;;;;;13.35;4.15;;;16.30;97.00;;;;;;6221406;23;20373;-63
2022/05/12 05:20:18;;;;;;;9.95;4.13;;;17.30;94.60;;;;;;6224607;23;20032;-63
2022/05/12 05:22:44;;;;;;;8.73;3.83;;;17.90;93.90;;;;;;6228858;23;20008;-63
2022/05/12 05:25:10;;;;;;;6.47;3.50;;;18.30;92.60;;;;;;6161917;23;20058;-63
2022/05/12 05:27:37;;;;;;;7.03;3.63;;;19.40;90.70;;;;;;6226404;23;20012;-62
2022/05/12 05:30:04;;;;;;;11.75;4.38;;;20.00;87.00;;;;;;6219044;23;20016;-64
2022/05/12 05:32:30;;;;;;;7.65;3.75;;;20.20;84.30;;;;;;6224740;23;20011;-63
2022/05/12 05:34:56;;;;;;;9.18;4.15;;;19.40;84.50;;;;;;6220832;23;20000;-63
2022/05/12 05:37:21;;;;;;;11.77;4.30;;;20.20;81.80;;;;;;6229653;23;20271;-62
2022/05/12 05:39:47;;;;;;;9.02;4.10;;;20.20;79.70;;;;;;6226460;23;20008;-63
2022/05/12 05:42:15;;;;;;;8.93;4.10;;;20.20;79.10;;;;;;6219098;23;20446;-63
2022/05/12 05:44:40;;;;;;;9.80;4.10;;;20.00;79.70;;;;;;6219917;23;20004;-63
2022/05/12 05:47:07;;;;;;;6.78;3.72;;;20.50;74.90;;;;;;6220890;23;20775;-64
2022/05/12 05:49:33;;;;;;;8.63;4.03;;;21.20;70.30;;;;;;6234151;23;20722;-59
2022/05/12 05:54:43;;;;;;;8.60;3.65;;;20.80;71.40;;;;;;6233909;23;20062;-59
2022/05/12 05:57:09;;;;;;;12.45;4.40;;;21.40;71.00;;;;;;6232304;23;19996;-59
2022/05/12 05:59:34;;;;;;;13.20;5.13;;;20.80;70.40;;;;;;6234499;22;20019;-59
2022/05/12 06:02:00;;;;;;;10.90;4.65;;;20.40;72.20;;;;;;6233262;23;20352;-59
2022/05/12 06:04:26;;;;;;;15.07;5.10;;;20.80;71.60;;;;;;6233332;23;20311;-59
2022/05/12 06:06:51;;;;;;;12.13;5.20;;;21.30;72.50;;;;;;6230117;23;20039;-59
2022/05/12 06:09:17;;;;;;;12.80;6.03;;;22.10;69.30;;;;;;6230535;23;20322;-59
2022/05/12 06:11:44;;;;;;;13.23;5.85;;;21.50;68.70;;;;;;6235688;23;20415;-59
2022/05/12 06:14:09;;;;;;;14.70;6.03;;;21.70;68.20;;;;;;6232472;23;20456;-59
2022/05/12 06:16:35;;;;;;;14.43;5.85;;;22.10;70.00;;;;;;6233872;23;20004;-59
2022/05/12 06:19:01;;;;;;;15.10;6.22;;;21.40;70.30;;;;;;6234468;23;20019;-59
2022/05/12 06:21:27;;;;;;;17.88;8.43;;;21.30;70.60;;;;;;6233459;23;20004;-59
2022/05/12 06:23:53;;;;;;;14.52;7.90;;;20.70;74.00;;;;;;6233842;23;20053;-59
2022/05/12 06:26:20;;;;;;;16.00;10.02;;;21.30;73.00;;;;;;6152348;23;20000;-59
2022/05/12 06:28:46;;;;;;;17.77;9.98;;;21.00;72.20;;;;;;6228384;23;20089;-59
2022/05/12 06:31:16;;;;;;;19.60;10.02;;;20.90;72.70;;;;;;6233472;23;20044;-60
2022/05/12 06:33:42;;;;;;;16.42;9.95;;;22.20;70.60;;;;;;6231842;23;20004;-61
2022/05/12 06:36:08;;;;;;;18.30;10.63;;;22.60;67.70;;;;;;6227016;23;19997;-59
2022/05/12 06:38:34;;;;;;;20.17;10.75;;;22.30;65.80;;;;;;6225950;23;20008;-60
2022/05/12 06:41:00;;;;;;;22.67;10.88;;;22.10;67.50;;;;;;6223848;23;20317;-59
2022/05/12 06:43:26;;;;;;;17.55;10.48;;;21.20;69.10;;;;;;6227429;23;20004;-60
2022/05/12 06:45:51;;;;;;;18.75;11.25;;;22.30;66.50;;;;;;6235322;23;20026;-59
2022/05/12 06:48:17;;;;;;;16.30;10.73;;;21.90;67.40;;;;;;6231276;23;20040;-60
2022/05/12 06:50:42;;;;;;;14.98;10.32;;;22.20;67.50;;;;;;6233626;23;20302;-60
2022/05/12 06:53:08;;;;;;;14.52;9.88;;;22.90;62.70;;;;;;6232780;23;20026;-59
2022/05/12 06:55:34;;;;;;;17.30;10.05;;;22.30;62.30;;;;;;6234522;23;20332;-60
2022/05/12 06:57:59;;;;;;;20.02;10.90;;;21.60;65.70;;;;;;6233000;23;20919;-59
2022/05/12 07:00:25;;;;;;;21.25;9.35;;;22.10;64.90;;;;;;6232886;22;19996;-60
2022/05/12 07:02:52;;;;;;;13.90;8.75;;;21.80;63.30;;;;;;6231822;23;20024;-60
2022/05/12 07:05:19;;;;;;;16.38;9.98;;;21.90;63.00;;;;;;6205885;23;20032;-60
2022/05/12 07:07:45;;;;;;;16.38;8.63;;;22.90;61.30;;;;;;6204737;23;20015;-60
2022/05/12 07:10:11;;;;;;;15.35;9.15;;;21.90;60.50;;;;;;6233147;23;20367;-60
2022/05/12 07:12:37;;;;;;;16.40;10.18;;;21.60;63.40;;;;;;6231965;23;20010;-60
2022/05/12 07:15:02;;;;;;;14.90;9.40;;;21.90;62.60;;;;;;6234452;23;20071;-60
2022/05/12 07:17:29;;;;;;;13.30;8.90;;;21.50;64.20;;;;;;6229954;23;19996;-59
2022/05/12 07:26:35;;;;;;;16.52;9.38;;;20.30;68.60;;;;;;6234645;23;20762;-59
2022/05/12 07:28:11;;;;;;;18.15;11.02;;;17.80;88.80;;;;;;6234052;23;20326;-59
2022/05/12 07:31:00;;;;;;;17.83;10.88;;;18.40;86.60;;;;;;6231681;23;20100;-60
2022/05/12 07:33:22;;;;;;;16.73;9.50;;;19.60;80.70;;;;;;6208975;23;20424;-60
2022/05/12 07:35:48;;;;;;;13.95;9.25;;;19.30;78.00;;;;;;6208457;23;19997;-60
2022/05/12 07:38:13;;;;;;;18.15;9.77;;;18.50;83.60;;;;;;6234716;23;20007;-60
2022/05/12 07:40:39;;;;;;;18.08;10.85;;;18.30;84.20;;;;;;6232422;23;20494;-60
2022/05/12 07:43:04;;;;;;;14.23;9.98;;;18.30;86.10;;;;;;6234617;23;20480;-60
2022/05/12 07:45:30;;;;;;;18.83;9.93;;;17.90;86.00;;;;;;6231966;23;20008;-61
2022/05/12 07:47:55;;;;;;;20.48;12.13;;;17.80;88.10;;;;;;6233957;23;20008;-61
2022/05/12 07:50:21;;;;;;;17.80;11.75;;;17.50;90.90;;;;;;6231719;23;20012;-60
2022/05/12 07:52:46;;;;;;;14.93;9.82;;;18.90;88.40;;;;;;6233397;23;20008;-61
2022/05/12 07:55:12;;;;;;;12.70;10.02;;;20.80;74.50;;;;;;6232645;23;20000;-61
2022/05/12 07:57:37;;;;;;;17.10;9.32;;;21.30;67.80;;;;;;6233315;23;20096;-61
2022/05/12 08:00:05;;;;;;;16.75;9.00;;;21.70;67.40;;;;;;6232082;22;20022;-60
2022/05/12 08:02:31;;;;;;;10.63;7.85;;;22.70;64.80;;;;;;6230739;23;20020;-61
2022/05/12 08:04:57;;;;;;;9.70;7.43;;;23.10;59.90;;;;;;6228357;23;20004;-61
2022/05/12 08:07:22;;;;;;;8.43;7.50;;;23.10;58.70;;;;;;6233517;23;20007;-61
2022/05/12 08:09:48;;;;;;;10.35;6.55;;;23.80;56.90;;;;;;6227926;23;20023;-61
2022/05/12 08:12:15;;;;;;;12.73;6.93;;;23.90;54.60;;;;;;6235538;23;20004;-60
2022/05/12 08:14:41;;;;;;;7.72;5.97;;;24.00;54.40;;;;;;6231664;23;19996;-61
2022/05/12 08:17:06;;;;;;;13.07;8.05;;;23.60;55.30;;;;;;6234352;23;20046;-61
2022/05/12 08:19:33;;;;;;;11.18;7.75;;;23.70;55.20;;;;;;6234693;23;20434;-61
2022/05/12 08:21:59;;;;;;;11.43;7.90;;;23.90;56.70;;;;;;6236198;23;20000;-61
2022/05/12 08:24:24;;;;;;;12.60;8.02;;;23.40;55.20;;;;;;6233227;23;20000;-61
2022/05/12 08:26:50;;;;;;;9.75;6.80;;;22.60;60.00;;;;;;6153630;23;20016;-61
2022/05/12 08:29:15;;;;;;;9.63;6.55;;;23.10;57.60;;;;;;6234096;23;20506;-61
2022/05/12 08:31:41;;;;;;;11.27;7.10;;;21.80;59.20;;;;;;6236980;23;20115;-61
2022/05/12 08:34:06;;;;;;;9.38;6.90;;;21.30;66.50;;;;;;6234787;23;20098;-60
2022/05/12 08:36:32;;;;;;;11.45;6.85;;;23.10;58.50;;;;;;6210222;23;20004;-61
2022/05/12 08:38:57;;;;;;;10.07;6.43;;;23.40;57.80;;;;;;6234818;23;20333;-61
2022/05/12 08:41:43;;;;;;;12.10;5.50;;;23.50;55.30;;;;;;6235223;23;20098;-61
2022/05/12 08:44:12;;;;;;;7.40;5.03;;;23.80;57.70;;;;;;6211659;23;20011;-61
2022/05/12 08:46:44;;;;;;;9.98;5.18;;;23.80;55.60;;;;;;6208012;23;20165;-61
2022/05/12 08:49:30;;;;;;;8.52;5.78;;;24.40;56.20;;;;;;6206688;23;20506;-60
2022/05/12 08:52:18;;;;;;;10.90;5.70;;;23.90;54.00;;;;;;6209457;23;20004;-61
2022/05/12 08:54:51;;;;;;;8.10;5.07;;;24.40;54.00;;;;;;6211934;23;20408;-60
2022/05/12 08:57:46;;;;;;;6.85;3.90;;;24.10;53.40;;;;;;6236530;23;20008;-61
2022/05/12 09:00:15;;;;;;;8.02;4.65;;;24.90;51.40;;;;;;6207192;23;20091;-61
2022/05/12 09:02:52;;;;;;;28.23;18.58;;;25.00;52.50;;;;;;6234290;23;20103;-61
2022/05/12 09:05:19;;;;;;;7.88;4.25;;;25.40;50.00;;;;;;6207831;23;20453;-61
2022/05/12 09:07:53;;;;;;;6.82;4.25;;;26.10;50.20;;;;;;6236798;23;20238;-61
2022/05/12 09:10:38;;;;;;;6.65;3.88;;;26.70;47.70;;;;;;6207186;23;20000;-60
2022/05/12 09:13:12;;;;;;;;;;;26.30;47.80;;;;;;6237256;23;20077;-61
2022/05/12 09:15:41;;;;;;;6.90;3.40;;;26.50;46.60;;;;;;6234534;23;19915;-61
2022/05/12 09:18:18;;;;;;;11.02;5.72;;;26.20;45.80;;;;;;6236735;23;20383;-61
2022/05/12 09:20:44;;;;;;;9.27;5.40;;;23.50;52.70;;;;;;6208608;23;20028;-61
2022/05/12 09:23:10;;;;;;;9.48;5.68;;;23.80;52.10;;;;;;6236624;23;20004;-60
2022/05/12 09:25:43;;;;;;;8.10;6.00;;;23.40;54.10;;;;;;6183871;23;20486;-60
2022/05/12 09:28:27;;;;;;;10.45;4.97;;;22.80;55.20;;;;;;6237057;23;20395;-60
2022/05/12 09:30:55;;;;;;;7.32;3.90;;;23.60;54.20;;;;;;6232651;23;20024;-61
2022/05/12 09:33:31;;;;;;;7.80;4.57;;;24.70;52.10;;;;;;6235913;23;20000;-61
2022/05/12 09:35:59;;;;;;;7.45;3.97;;;24.90;49.80;;;;;;6228581;23;20008;-61
2022/05/12 09:38:26;;;;;;;8.77;3.97;;;25.00;50.60;;;;;;6230915;23;20000;-60
2022/05/12 09:40:52;;;;;;;7.90;3.60;;;23.70;51.60;;;;;;6226970;23;20015;-61
2022/05/12 09:43:32;;;;;;;5.45;2.38;;;23.50;54.60;;;;;;6231047;23;20094;-61
2022/05/12 09:46:16;;;;;;;3.58;2.13;;;24.40;55.70;;;;;;6228753;23;20012;-61
2022/05/12 09:48:41;;;;;;;5.93;2.88;;;24.80;48.50;;;;;;6230683;23;20023;-61
2022/05/12 09:51:16;;;;;;;5.28;2.50;;;24.60;50.90;;;;;;6201750;23;20004;-61
2022/05/12 09:53:41;;;;;;;6.68;3.30;;;23.30;53.80;;;;;;6230584;23;20031;-61
2022/05/12 09:56:10;;;;;;;7.40;3.33;;;23.10;53.20;;;;;;6228460;23;20007;-60
2022/05/12 09:58:41;;;;;;;6.35;3.70;;;22.20;53.20;;;;;;6204169;23;20019;-61
2022/05/12 10:01:19;;;;;;;9.55;3.78;;;21.80;56.20;;;;;;6201886;23;20004;-61
2022/05/12 10:09:18;;;;;;;7.82;3.05;;;21.00;55.30;;;;;;6206370;23;20031;-61
2022/05/12 10:12:08;;;;;;;5.90;3.15;;;20.50;57.00;;;;;;6231261;23;20436;-61
2022/05/12 10:14:50;;;;;;;5.88;2.83;;;20.70;56.70;;;;;;6202200;23;20018;-61
2022/05/12 10:17:26;;;;;;;6.65;2.97;;;21.50;56.00;;;;;;6205579;23;20000;-61
2022/05/12 10:19:52;;;;;;;6.63;3.20;;;21.20;55.00;;;;;;6202757;23;20050;-61
2022/05/12 10:22:21;;;;;;;5.85;3.50;;;21.10;55.70;;;;;;6231189;23;20433;-61
2022/05/12 10:25:05;;;;;;;9.20;3.53;;;20.80;60.10;;;;;;6201774;23;20016;-61
2022/05/12 10:27:49;;;;;;;6.65;4.07;;;21.30;59.10;;;;;;6229436;23;20008;-62
2022/05/12 10:30:24;;;;;;;8.20;3.58;;;21.10;61.30;;;;;;6200187;23;20075;-61
2022/05/12 10:32:57;;;;;;;;;;;20.90;58.00;;;;;;6203840;23;20506;-61
2022/05/12 10:35:33;;;;;;;23.00;14.82;;;20.50;61.00;;;;;;6203466;23;19903;-62
2022/05/12 10:38:09;;;;;;;8.30;3.90;;;20.20;61.90;;;;;;6201562;23;20029;-62
2022/05/12 10:40:46;;;;;;;17.52;9.68;;;19.30;60.60;;;;;;6203410;23;20012;-61
2022/05/12 10:43:22;;;;;;;7.32;3.35;;;19.60;62.90;;;;;;6201416;23;20543;-61
2022/05/12 10:46:11;;;;;;;7.40;2.90;;;20.40;60.30;;;;;;6226211;23;20091;-62
2022/05/12 10:49:11;;;;;;;9.57;3.65;;;21.40;58.60;;;;;;6203770;23;20011;-61
2022/05/12 10:51:59;;;;;;;17.00;5.57;;;21.40;58.40;;;;;;6228510;23;20426;-61
2022/05/12 10:54:39;;;;;;;7.22;3.00;;;21.40;59.20;;;;;;6203162;23;20004;-58
2022/05/12 10:57:35;;;;;;;7.45;3.95;;;21.30;57.60;;;;;;6201134;23;20034;-62
2022/05/12 11:00:22;;;;;;;7.50;4.28;;;21.40;61.00;;;;;;6230295;22;20004;-61
2022/05/12 11:02:50;;;;;;;7.13;3.63;;;21.40;56.80;;;;;;6198072;23;20008;-61
2022/05/12 11:05:22;;;;;;;5.78;2.70;;;21.30;60.00;;;;;;6195728;23;20040;-62
2022/05/12 11:07:56;;;;;;;8.95;4.35;;;22.10;55.40;;;;;;6200013;23;20004;-61
2022/05/12 11:10:42;;;;;;;8.00;3.25;;;22.20;57.80;;;;;;6198424;23;20527;-59
2022/05/12 11:13:15;;;;;;;9.60;3.00;;;23.20;55.00;;;;;;6199188;23;20028;-59
2022/05/12 11:15:55;;;;;;;8.05;2.67;;;23.60;54.50;;;;;;6196862;23;20005;-59
2022/05/12 11:18:46;;;;;;;8.52;3.17;;;22.20;53.30;;;;;;6197033;23;20119;-59
2022/05/12 11:21:17;;;;;;;6.15;2.92;;;22.30;56.00;;;;;;6183107;23;20050;-60
2022/05/12 11:23:59;;;;;;;3.72;2.47;;;22.90;54.80;;;;;;6200330;23;20001;-61
2022/05/12 11:26:47;;;;;;;6.68;3.38;;;22.60;54.20;;;;;;6137668;23;20007;-61
2022/05/12 11:32:26;;;;;;;9.35;3.90;;;23.60;53.90;;;;;;6196843;23;20015;-61
2022/05/12 11:34:54;;;;;;;6.80;3.55;;;24.10;52.90;;;;;;6193152;23;20106;-61
2022/05/12 11:37:35;;;;;;;7.82;3.08;;;23.40;52.20;;;;;;6193415;23;20783;-60
2022/05/12 11:40:08;;;;;;;5.45;3.13;;;24.60;53.40;;;;;;6199239;23;20349;-60
2022/05/12 11:45:42;;;;;;;6.57;2.50;;;24.80;50.60;;;;;;6195860;23;20015;-61
2022/05/12 11:48:44;;;;;;;6.43;2.95;;;24.10;49.90;;;;;;6199895;23;20437;-62
2022/05/12 11:51:35;;;;;;;4.25;2.30;;;24.30;50.10;;;;;;6208641;23;20671;-61
2022/05/12 11:54:03;;;;;;;6.68;2.38;;;24.50;47.80;;;;;;6204238;23;20013;-61
2022/05/12 11:56:40;;;;;;;5.10;2.03;;;25.40;48.50;;;;;;6202073;23;20008;-61
2022/05/12 11:59:30;;;;;;;5.45;2.35;;;24.60;47.30;;;;;;6199835;23;20005;-61
2022/05/12 12:01:58;;;;;;;9.05;2.63;;;23.70;48.00;;;;;;6215626;23;20103;-61
2022/05/12 12:04:39;;;;;;;5.97;2.40;;;23.50;50.50;;;;;;6200495;23;20050;-60
2022/05/12 12:07:24;;;;;;;6.05;2.00;;;22.20;51.10;;;;;;6233798;23;20027;-62
2022/05/12 12:09:51;;;;;;;7.07;3.00;;;22.30;53.00;;;;;;6209634;23;20008;-61
2022/05/12 12:12:49;;;;;;;4.50;2.40;;;22.20;53.70;;;;;;6207312;23;20565;-61
2022/05/12 12:15:23;;;;;;;6.57;2.60;;;23.00;51.90;;;;;;6231961;23;20008;-60
2022/05/12 12:17:49;;;;;;;4.78;1.80;;;23.30;51.30;;;;;;6233432;23;20030;-61
2022/05/12 12:20:30;;;;;;;2.13;1.23;;;24.10;47.60;;;;;;6204646;23;20357;-61
2022/05/12 12:22:57;;;;;;;1.88;1.23;;;23.60;44.90;;;;;;6233323;23;20032;-61
2022/05/12 12:25:34;;;;;;;4.55;1.83;;;23.10;48.90;;;;;;6148805;23;20373;-61
2022/05/12 12:28:08;;;;;;;3.33;1.73;;;22.40;48.10;;;;;;6206470;23;20008;-61
2022/05/12 12:30:38;;;;;;;1.85;1.38;;;22.20;49.60;;;;;;6203727;23;20344;-61
2022/05/12 12:33:18;;;;;;;4.18;2.10;;;21.90;48.90;;;;;;6221456;23;20272;-61
2022/05/12 12:36:05;;;;;;;8.40;2.20;;;22.30;52.50;;;;;;6201119;23;20005;-62
2022/05/12 12:38:48;;;;;;;4.72;1.70;;;22.90;47.50;;;;;;6206222;23;20011;-62
2022/05/12 12:41:29;;;;;;;3.75;1.70;;;23.30;45.00;;;;;;6230790;23;20011;-61
2022/05/12 12:44:14;;;;;;;4.30;1.70;;;23.30;46.00;;;;;;6232216;23;20111;-62
2022/05/12 12:46:59;;;;;;;;;;;23.20;45.80;;;;;;6232563;23;20008;-62
2022/05/12 12:49:47;;;;;;;8.57;2.03;;;23.60;45.30;;;;;;6229648;23;19907;-61
2022/05/12 12:52:13;;;;;;;3.05;1.65;;;23.50;46.50;;;;;;6205184;23;20257;-61
2022/05/12 12:57:39;;;;;;;4.07;1.60;;;23.10;47.60;;;;;;6230103;23;20016;-61
2022/05/12 13:00:07;;;;;;;7.45;1.90;;;23.30;47.80;;;;;;6227877;22;20361;-60
2022/05/12 13:02:40;;;;;;;3.70;1.90;;;23.30;48.50;;;;;;6230497;23;20027;-60
2022/05/12 13:05:27;;;;;;;3.67;1.80;;;22.90;48.00;;;;;;6228808;23;20008;-61
2022/05/12 13:08:04;;;;;;;4.20;1.77;;;22.80;46.40;;;;;;6230797;23;20015;-60
2022/05/12 13:10:32;;;;;;;5.28;2.13;;;23.10;46.70;;;;;;6227494;23;20613;-62
2022/05/12 13:13:05;;;;;;;3.72;1.83;;;23.80;48.60;;;;;;6231996;23;20004;-61
2022/05/12 13:15:33;;;;;;;5.40;1.70;;;23.40;46.80;;;;;;6228828;23;20087;-60
2022/05/12 13:18:00;;;;;;;3.33;1.50;;;23.40;46.40;;;;;;6229878;23;20758;-61
2022/05/12 13:20:32;;;;;;;2.85;1.27;;;23.10;45.70;;;;;;6227657;23;20058;-60